createdAt,value
2019-03-31T00:01:08.033Z,28.63
2019-03-31T00:03:29.483Z,24.53
2019-03-31T00:05:59.046Z,29.53
2019-03-31T00:08:28.543Z,26.37
2019-03-31T00:11:00.641Z,27.53
2019-03-31T00:13:29.397Z,27.97
2019-03-31T00:15:58.938Z,27.63
2019-03-31T00:18:28.363Z,25.37
2019-03-31T00:20:57.920Z,29.87
2019-03-31T00:23:27.552Z,26.43
2019-03-31T00:25:57.119Z,30.60
2019-03-31T00:28:26.534Z,28.93
2019-03-31T00:30:56.834Z,27.73
2019-03-31T00:33:26.615Z,27.17
2019-03-31T00:35:56.145Z,27.83
2019-03-31T00:38:25.708Z,28.30
2019-03-31T00:40:55.273Z,27.63
2019-03-31T00:43:24.895Z,26.90
2019-03-31T00:45:54.390Z,25.47
2019-03-31T00:48:23.850Z,32.37
2019-03-31T00:50:53.301Z,30.00
2019-03-31T00:53:22.939Z,26.00
2019-03-31T00:55:52.447Z,25.10
2019-03-31T00:58:21.878Z,24.43
2019-03-31T01:00:54.822Z,26.33
2019-03-31T01:03:26.633Z,27.50
2019-03-31T01:05:56.303Z,27.97
2019-03-31T01:08:29.310Z,26.10
2019-03-31T01:10:59.479Z,26.23
2019-03-31T01:13:29.277Z,27.63
2019-03-31T01:15:58.778Z,28.47
2019-03-31T01:18:28.474Z,26.27
2019-03-31T01:20:57.885Z,27.67
2019-03-31T01:23:27.682Z,26.60
2019-03-31T01:26:00.398Z,27.00
2019-03-31T01:28:28.581Z,28.20
2019-03-31T01:30:59.017Z,27.97
2019-03-31T01:33:28.580Z,26.17
2019-03-31T01:35:58.069Z,28.47
2019-03-31T01:38:27.627Z,26.80
2019-03-31T01:40:57.215Z,26.90
2019-03-31T01:43:26.782Z,29.10
2019-03-31T01:45:56.373Z,25.17
2019-03-31T01:48:25.864Z,30.70
2019-03-31T01:50:55.295Z,23.13
2019-03-31T01:53:24.759Z,24.70
2019-03-31T01:55:54.191Z,24.90
2019-03-31T01:58:23.678Z,28.53
2019-03-31T02:00:54.856Z,24.93
2019-03-31T02:03:26.160Z,24.73
2019-03-31T02:05:55.662Z,27.73
2019-03-31T02:08:25.179Z,29.83
2019-03-31T02:10:54.611Z,25.70
2019-03-31T02:13:24.118Z,24.97
2019-03-31T02:15:53.573Z,26.83
2019-03-31T02:18:22.997Z,29.33
2019-03-31T02:20:52.424Z,26.73
2019-03-31T02:23:27.098Z,29.13
2019-03-31T02:25:56.667Z,27.93
2019-03-31T02:28:26.165Z,29.93
2019-03-31T02:30:55.740Z,25.83
2019-03-31T02:33:25.316Z,26.37
2019-03-31T02:35:54.903Z,27.67
2019-03-31T02:38:24.423Z,32.47
2019-03-31T02:40:53.841Z,28.07
2019-03-31T02:43:23.342Z,27.87
2019-03-31T02:45:52.869Z,30.27
2019-03-31T02:48:23.660Z,30.60
2019-03-31T02:50:54.160Z,26.70
2019-03-31T02:53:23.920Z,27.47
2019-03-31T02:55:55.954Z,26.50
2019-03-31T02:58:27.444Z,30.57
2019-03-31T03:00:57.102Z,28.07
2019-03-31T03:03:27.883Z,28.53
2019-03-31T03:05:58.883Z,29.80
2019-03-31T03:08:30.823Z,25.33
2019-03-31T03:11:02.984Z,27.87
2019-03-31T03:13:34.808Z,28.37
2019-03-31T03:16:07.261Z,30.43
2019-03-31T03:18:38.135Z,29.53
2019-03-31T03:21:07.560Z,28.73
2019-03-31T03:23:37.051Z,27.47
2019-03-31T03:26:06.577Z,31.00
2019-03-31T03:28:36.168Z,28.03
2019-03-31T03:31:14.340Z,30.67
2019-03-31T03:33:38.227Z,29.27
2019-03-31T03:36:07.632Z,28.37
2019-03-31T03:38:37.268Z,31.47
2019-03-31T03:41:06.766Z,30.80
2019-03-31T03:43:53.558Z,28.63
2019-03-31T03:46:08.552Z,30.10
2019-03-31T03:48:38.107Z,30.67
2019-03-31T03:51:07.671Z,29.60
2019-03-31T03:53:37.259Z,28.87
2019-03-31T03:56:06.862Z,30.50
2019-03-31T03:58:36.255Z,29.57
2019-03-31T04:01:07.563Z,29.97
2019-03-31T04:03:38.336Z,28.13
2019-03-31T04:06:07.833Z,27.93
2019-03-31T04:08:37.334Z,28.27
2019-03-31T04:11:11.951Z,33.50
2019-03-31T04:13:41.526Z,27.03
2019-03-31T04:16:11.089Z,31.57
2019-03-31T04:18:40.645Z,31.30
2019-03-31T04:21:10.201Z,29.07
2019-03-31T04:23:39.875Z,30.27
2019-03-31T04:26:09.585Z,26.93
2019-03-31T04:28:39.223Z,30.90
2019-03-31T04:31:08.718Z,28.97
2019-03-31T04:33:50.542Z,28.60
2019-03-31T04:36:09.391Z,33.40
2019-03-31T04:38:38.959Z,30.73
2019-03-31T04:41:08.526Z,28.37
2019-03-31T04:43:38.189Z,26.73
2019-03-31T04:46:07.673Z,30.43
2019-03-31T04:48:37.156Z,28.87
2019-03-31T04:51:06.722Z,32.40
2019-03-31T04:53:36.380Z,30.57
2019-03-31T04:56:06.185Z,30.63
2019-03-31T04:58:35.675Z,30.40
2019-03-31T05:01:05.285Z,31.47
2019-03-31T05:03:34.788Z,35.83
2019-03-31T05:06:04.349Z,36.47
2019-03-31T05:08:33.973Z,29.97
2019-03-31T05:11:03.537Z,30.07
2019-03-31T05:13:33.095Z,27.43
2019-03-31T05:16:02.750Z,28.50
2019-03-31T05:18:32.173Z,29.90
2019-03-31T05:21:01.808Z,28.73
2019-03-31T05:23:31.486Z,30.23
2019-03-31T05:26:02.241Z,32.10
2019-03-31T05:28:31.667Z,33.63
2019-03-31T05:31:01.204Z,37.03
2019-03-31T05:33:30.667Z,33.93
2019-03-31T05:36:00.312Z,33.73
2019-03-31T05:38:29.814Z,52.53
2019-03-31T05:40:59.243Z,31.07
2019-03-31T05:43:29.019Z,36.27
2019-03-31T05:45:58.515Z,33.40
2019-03-31T05:48:28.055Z,30.90
2019-03-31T05:50:57.619Z,32.37
2019-03-31T05:53:27.189Z,31.07
2019-03-31T05:55:56.866Z,29.63
2019-03-31T05:58:26.423Z,34.60
2019-03-31T06:00:55.951Z,36.73
2019-03-31T06:03:25.379Z,34.10
2019-03-31T06:05:54.794Z,38.23
2019-03-31T06:08:24.411Z,36.73
2019-03-31T06:10:54.009Z,33.57
2019-03-31T06:13:30.960Z,35.67
2019-03-31T06:16:00.577Z,41.20
2019-03-31T06:18:30.145Z,36.57
2019-03-31T06:20:59.606Z,36.87
2019-03-31T06:23:29.173Z,37.93
2019-03-31T06:25:58.798Z,42.07
2019-03-31T06:28:28.424Z,36.73
2019-03-31T06:30:57.908Z,43.47
2019-03-31T06:33:27.561Z,37.17
2019-03-31T06:35:57.160Z,37.40
2019-03-31T06:38:26.690Z,33.13
2019-03-31T06:40:57.455Z,34.00
2019-03-31T06:43:27.113Z,32.63
2019-03-31T06:45:56.600Z,28.77
2019-03-31T06:48:26.023Z,35.27
2019-03-31T06:50:55.566Z,42.57
2019-03-31T06:53:25.248Z,43.37
2019-03-31T06:55:54.812Z,41.33
2019-03-31T06:58:24.359Z,48.83
2019-03-31T07:00:53.857Z,46.30
2019-03-31T07:03:23.512Z,45.93
2019-03-31T07:05:54.136Z,40.07
2019-03-31T07:08:23.641Z,37.77
2019-03-31T07:10:53.184Z,37.83
2019-03-31T07:13:22.808Z,36.53
2019-03-31T07:15:52.286Z,36.40
2019-03-31T07:18:21.843Z,35.83
2019-03-31T07:20:51.517Z,33.80
2019-03-31T07:23:21.134Z,34.60
2019-03-31T07:25:50.734Z,29.77
2019-03-31T07:28:20.242Z,34.60
2019-03-31T07:30:49.785Z,37.10
2019-03-31T07:33:19.347Z,35.10
2019-03-31T07:35:48.786Z,32.10
2019-03-31T07:38:18.576Z,31.50
2019-03-31T07:40:48.347Z,31.80
2019-03-31T07:43:18.076Z,30.93
2019-03-31T07:45:47.673Z,31.07
2019-03-31T07:48:17.128Z,32.40
2019-03-31T07:50:46.751Z,30.83
2019-03-31T07:53:16.398Z,29.57
2019-03-31T07:55:46.268Z,28.17
2019-03-31T07:58:15.924Z,29.80
2019-03-31T08:00:46.464Z,27.10
2019-03-31T08:03:16.295Z,26.63
2019-03-31T08:05:45.763Z,22.37
2019-03-31T08:08:15.202Z,22.87
2019-03-31T08:10:44.755Z,23.00
2019-03-31T08:13:14.291Z,23.00
2019-03-31T08:15:43.741Z,20.03
2019-03-31T08:18:13.322Z,22.77
2019-03-31T08:20:44.305Z,25.10
2019-03-31T08:23:13.990Z,19.90
2019-03-31T08:25:43.526Z,24.70
2019-03-31T08:28:13.208Z,23.47
2019-03-31T08:30:42.714Z,23.30
2019-03-31T08:33:12.212Z,23.67
2019-03-31T08:35:47.482Z,20.37
2019-03-31T08:38:14.854Z,20.50
2019-03-31T08:40:44.489Z,16.83
2019-03-31T08:43:14.419Z,19.57
2019-03-31T08:45:44.155Z,20.77
2019-03-31T08:48:13.732Z,19.87
2019-03-31T08:50:44.065Z,18.60
2019-03-31T08:53:13.999Z,19.73
2019-03-31T08:55:43.424Z,17.83
2019-03-31T08:58:12.892Z,20.23
2019-03-31T09:00:45.133Z,16.60
2019-03-31T09:03:14.760Z,18.57
2019-03-31T09:05:44.255Z,22.53
2019-03-31T09:08:16.486Z,15.97
2019-03-31T09:10:45.949Z,20.37
2019-03-31T09:13:15.881Z,15.97
2019-03-31T09:15:45.531Z,14.73
2019-03-31T09:18:15.186Z,17.83
2019-03-31T09:20:49.999Z,17.50
2019-03-31T09:23:21.115Z,17.60
2019-03-31T09:25:50.645Z,19.47
2019-03-31T09:28:20.306Z,16.57
2019-03-31T09:30:49.898Z,21.00
2019-03-31T09:33:19.616Z,15.03
2019-03-31T09:35:49.156Z,16.43
2019-03-31T09:38:18.800Z,14.13
2019-03-31T09:41:09.100Z,16.80
2019-03-31T09:59:09.015Z,14.93
2019-03-31T10:04:55.377Z,16.90
2019-03-31T10:07:25.225Z,14.73
2019-03-31T10:09:55.205Z,16.77
2019-03-31T10:12:24.711Z,19.40
2019-03-31T10:14:54.494Z,14.83
2019-03-31T10:17:23.932Z,14.17
2019-03-31T10:19:54.921Z,14.57
2019-03-31T10:22:24.431Z,18.37
2019-03-31T10:24:53.936Z,16.97
2019-03-31T10:27:23.487Z,14.47
2019-03-31T10:29:53.039Z,16.73
2019-03-31T10:32:22.474Z,14.57
2019-03-31T10:34:51.991Z,15.83
2019-03-31T10:37:21.672Z,15.27
2019-03-31T10:39:51.168Z,15.27
2019-03-31T10:42:20.671Z,14.00
2019-03-31T10:44:50.215Z,14.23
2019-03-31T10:47:19.682Z,14.97
2019-03-31T10:49:49.193Z,16.40
2019-03-31T10:52:18.684Z,18.07
2019-03-31T10:54:48.247Z,16.43
2019-03-31T10:57:17.772Z,12.90
2019-03-31T10:59:47.346Z,13.77
2019-03-31T11:02:16.848Z,18.30
2019-03-31T11:04:46.383Z,13.07
2019-03-31T11:07:15.895Z,14.30
2019-03-31T11:09:45.397Z,11.17
2019-03-31T11:12:14.923Z,11.47
2019-03-31T11:14:44.434Z,12.20
2019-03-31T11:17:14.061Z,13.73
2019-03-31T11:19:43.595Z,14.40
2019-03-31T11:22:20.820Z,15.10
2019-03-31T11:24:50.352Z,13.97
2019-03-31T11:27:19.852Z,14.70
2019-03-31T11:29:49.358Z,16.53
2019-03-31T11:32:19.956Z,12.83
2019-03-31T11:34:49.386Z,13.97
2019-03-31T11:37:18.970Z,13.27
2019-03-31T11:39:48.510Z,11.97
2019-03-31T11:42:18.008Z,11.83
2019-03-31T11:44:47.418Z,15.90
2019-03-31T11:47:16.959Z,13.50
2019-03-31T11:49:46.367Z,15.43
2019-03-31T11:52:15.937Z,12.90
2019-03-31T11:54:45.978Z,12.87
2019-03-31T11:57:17.498Z,12.50
2019-03-31T11:59:49.676Z,12.97
2019-03-31T12:02:26.837Z,13.10
2019-03-31T12:04:49.436Z,9.77
2019-03-31T12:07:28.016Z,10.50
2019-03-31T12:09:52.014Z,12.10
2019-03-31T12:12:21.475Z,10.57
2019-03-31T12:15:00.284Z,10.90
2019-03-31T12:17:22.135Z,11.47
2019-03-31T12:19:51.630Z,11.70
2019-03-31T12:22:21.103Z,11.73
2019-03-31T12:24:50.768Z,16.23
2019-03-31T12:27:20.272Z,18.83
2019-03-31T12:29:49.777Z,10.90
2019-03-31T12:32:19.283Z,12.57
2019-03-31T12:34:48.773Z,11.23
2019-03-31T12:37:18.256Z,12.10
2019-03-31T12:39:47.733Z,13.77
2019-03-31T12:42:17.364Z,11.30
2019-03-31T12:44:46.902Z,11.33
2019-03-31T12:47:16.472Z,9.57
2019-03-31T12:49:45.876Z,9.40
2019-03-31T12:52:15.558Z,17.30
2019-03-31T12:54:45.068Z,11.97
2019-03-31T12:57:14.562Z,9.47
2019-03-31T12:59:45.732Z,11.63
2019-03-31T13:02:15.374Z,12.07
2019-03-31T13:04:44.893Z,8.90
2019-03-31T13:07:15.106Z,11.83
2019-03-31T13:09:44.915Z,11.23
2019-03-31T13:12:16.126Z,12.87
2019-03-31T13:14:45.506Z,9.17
2019-03-31T13:17:16.087Z,7.10
2019-03-31T13:19:45.647Z,10.93
2019-03-31T13:22:15.143Z,13.17
2019-03-31T13:24:44.621Z,13.97
2019-03-31T13:27:14.333Z,16.20
2019-03-31T13:29:43.734Z,9.97
2019-03-31T13:32:13.184Z,8.93
2019-03-31T13:34:42.754Z,16.80
2019-03-31T13:37:12.389Z,19.67
2019-03-31T13:39:41.992Z,23.27
2019-03-31T13:42:11.527Z,14.20
2019-03-31T13:44:41.076Z,18.03
2019-03-31T13:47:10.868Z,15.43
2019-03-31T13:49:40.457Z,10.37
2019-03-31T13:52:10.084Z,13.30
2019-03-31T13:54:39.574Z,14.33
2019-03-31T13:57:10.984Z,11.23
2019-03-31T13:59:40.930Z,18.00
2019-03-31T14:02:10.489Z,7.77
2019-03-31T14:04:50.943Z,9.17
2019-03-31T14:07:18.848Z,7.73
2019-03-31T14:09:48.577Z,8.87
2019-03-31T14:12:18.138Z,10.50
2019-03-31T14:14:47.740Z,10.80
2019-03-31T14:17:17.551Z,9.80
2019-03-31T14:19:47.140Z,8.13
2019-03-31T14:22:16.660Z,10.30
2019-03-31T14:24:58.333Z,8.77
2019-03-31T14:27:31.138Z,11.47
2019-03-31T14:30:00.694Z,12.93
2019-03-31T14:32:30.380Z,12.50
2019-03-31T14:35:02.961Z,17.27
2019-03-31T14:37:33.984Z,8.97
2019-03-31T14:40:03.756Z,9.63
2019-03-31T14:42:37.243Z,12.97
2019-03-31T14:45:07.300Z,9.13
2019-03-31T14:47:36.888Z,9.23
2019-03-31T14:50:08.000Z,14.30
2019-03-31T14:52:40.220Z,17.23
2019-03-31T14:55:09.774Z,12.73
2019-03-31T14:57:42.133Z,10.53
2019-03-31T15:00:15.225Z,11.60
2019-03-31T15:02:43.065Z,12.23
2019-03-31T15:05:14.408Z,12.23
2019-03-31T15:07:44.034Z,8.70
2019-03-31T15:10:13.677Z,11.60
2019-03-31T15:12:43.110Z,14.67
2019-03-31T15:15:12.778Z,13.90
2019-03-31T15:17:42.487Z,9.33
2019-03-31T15:20:12.101Z,10.77
2019-03-31T15:22:42.776Z,9.67
2019-03-31T15:25:12.559Z,14.10
2019-03-31T15:27:42.315Z,10.33
2019-03-31T15:30:12.084Z,15.47
2019-03-31T15:32:41.678Z,13.23
2019-03-31T15:35:11.249Z,13.03
2019-03-31T15:37:40.888Z,20.37
2019-03-31T15:40:10.488Z,14.87
2019-03-31T15:42:40.059Z,11.87
2019-03-31T15:45:09.724Z,15.13
2019-03-31T15:47:39.324Z,12.13
2019-03-31T15:50:09.496Z,12.57
2019-03-31T15:52:38.976Z,15.53
2019-03-31T15:55:09.947Z,13.70
2019-03-31T15:57:39.687Z,13.53
2019-03-31T16:00:10.288Z,15.47
2019-03-31T16:02:39.962Z,13.47
2019-03-31T16:05:12.688Z,13.17
2019-03-31T16:07:43.088Z,14.03
2019-03-31T16:10:12.824Z,20.43
2019-03-31T16:12:42.481Z,13.20
2019-03-31T16:15:13.665Z,15.73
2019-03-31T16:17:43.605Z,14.00
2019-03-31T16:20:15.141Z,13.33
2019-03-31T16:22:44.837Z,15.33
2019-03-31T16:25:19.075Z,15.83
2019-03-31T16:27:48.714Z,14.40
2019-03-31T16:30:19.778Z,18.03
2019-03-31T16:32:50.672Z,15.60
2019-03-31T16:35:21.995Z,15.93
2019-03-31T16:37:51.592Z,15.73
2019-03-31T16:40:21.229Z,17.13
2019-03-31T16:42:50.753Z,14.97
2019-03-31T16:45:20.298Z,17.13
2019-03-31T16:47:49.981Z,15.87
2019-03-31T16:50:19.475Z,19.50
2019-03-31T16:52:52.375Z,16.10
2019-03-31T16:55:20.387Z,27.37
2019-03-31T16:57:50.026Z,29.67
2019-03-31T17:00:21.093Z,23.37
2019-03-31T17:06:54.456Z,18.87
2019-03-31T17:10:19.040Z,24.60
2019-03-31T17:15:29.870Z,23.23
2019-03-31T17:17:59.722Z,18.30
2019-03-31T17:20:29.397Z,21.00
2019-03-31T17:22:58.972Z,19.20
2019-03-31T17:25:28.465Z,24.57
2019-03-31T17:27:58.189Z,19.10
2019-03-31T17:30:27.710Z,23.37
2019-03-31T17:32:57.202Z,22.80
2019-03-31T17:35:26.734Z,22.43
2019-03-31T17:37:56.378Z,21.40
2019-03-31T17:40:25.955Z,20.93
2019-03-31T17:42:55.563Z,24.47
2019-03-31T17:45:25.200Z,27.80
2019-03-31T17:47:54.788Z,26.70
2019-03-31T17:50:24.278Z,25.53
2019-03-31T17:52:53.816Z,39.97
2019-03-31T17:55:23.388Z,24.80
2019-03-31T17:57:52.920Z,32.50
2019-03-31T18:00:22.570Z,22.87
2019-03-31T18:02:52.072Z,25.00
2019-03-31T18:05:21.696Z,28.23
2019-03-31T18:07:51.510Z,22.67
2019-03-31T18:10:21.625Z,26.50
2019-03-31T18:12:51.478Z,27.40
2019-03-31T18:15:21.020Z,23.97
2019-03-31T18:17:51.678Z,30.73
2019-03-31T18:20:21.185Z,27.07
2019-03-31T18:22:50.757Z,29.20
2019-03-31T18:25:20.342Z,25.73
2019-03-31T18:27:50.129Z,26.67
2019-03-31T18:30:19.919Z,27.53
2019-03-31T18:32:49.444Z,25.97
2019-03-31T18:35:18.944Z,27.30
2019-03-31T18:37:49.790Z,21.97
2019-03-31T18:40:19.211Z,25.33
2019-03-31T18:42:48.642Z,22.37
2019-03-31T18:45:18.271Z,24.43
2019-03-31T18:47:47.859Z,24.23
2019-03-31T18:50:17.423Z,18.77
2019-03-31T18:52:47.968Z,17.33
2019-03-31T18:55:21.989Z,17.83
2019-03-31T18:57:53.249Z,17.33
2019-03-31T19:00:30.184Z,22.03
2019-03-31T19:03:01.333Z,20.33
2019-03-31T19:05:38.669Z,24.40
2019-03-31T19:08:25.937Z,19.13
2019-03-31T19:11:15.435Z,24.97
2019-03-31T19:13:55.237Z,21.73
2019-03-31T19:16:23.534Z,20.83
2019-03-31T19:19:10.806Z,26.37
2019-03-31T19:21:47.576Z,23.57
2019-03-31T19:24:18.911Z,24.43
2019-03-31T19:26:50.345Z,21.90
2019-03-31T19:29:27.631Z,24.80
2019-03-31T19:32:01.484Z,23.60
2019-03-31T19:34:44.433Z,28.40
2019-03-31T19:37:24.903Z,25.67
2019-03-31T19:40:02.173Z,25.00
2019-03-31T19:42:33.824Z,28.07
2019-03-31T19:45:24.040Z,26.90
2019-03-31T19:47:58.114Z,27.27
2019-03-31T19:50:41.125Z,23.60
2019-03-31T19:53:18.115Z,20.93
2019-03-31T19:56:07.531Z,23.47
2019-03-31T19:58:44.764Z,22.37
2019-03-31T20:01:32.195Z,19.53
2019-03-31T20:04:05.995Z,18.33
2019-03-31T20:06:37.201Z,24.43
2019-03-31T20:09:12.924Z,20.77
2019-03-31T20:12:00.354Z,20.87
2019-03-31T20:14:31.668Z,20.50
2019-03-31T20:17:02.818Z,19.20
2019-03-31T20:19:45.940Z,19.90
2019-03-31T20:22:31.849Z,17.80
2019-03-31T20:25:19.082Z,20.57
2019-03-31T20:28:06.062Z,21.00
2019-03-31T20:30:40.440Z,19.73
2019-03-31T20:33:17.676Z,23.87
2019-03-31T20:36:05.096Z,18.13
2019-03-31T20:38:36.294Z,23.53
2019-03-31T20:41:16.502Z,21.77
2019-03-31T20:43:55.155Z,18.27
2019-03-31T20:46:24.832Z,21.20
2019-03-31T20:48:54.392Z,19.60
2019-03-31T20:51:23.899Z,21.30
2019-03-31T20:53:53.453Z,24.10
2019-03-31T20:56:23.019Z,17.93
2019-03-31T20:58:52.524Z,21.80
2019-03-31T21:01:22.123Z,22.20
2019-03-31T21:03:51.690Z,18.17
2019-03-31T21:06:21.131Z,21.60
2019-03-31T21:08:50.839Z,21.07
2019-03-31T21:11:20.341Z,22.83
2019-03-31T21:13:49.899Z,20.87
2019-03-31T21:16:19.346Z,21.53
2019-03-31T21:18:48.893Z,21.40
2019-03-31T21:21:18.318Z,24.77
2019-03-31T21:23:47.816Z,26.07
2019-03-31T21:26:17.231Z,22.77
2019-03-31T21:28:46.665Z,26.00
2019-03-31T21:31:16.240Z,29.67
2019-03-31T21:33:45.669Z,35.37
2019-03-31T21:36:15.170Z,33.47
2019-03-31T21:38:44.809Z,30.77
2019-03-31T21:41:14.513Z,24.37
2019-03-31T21:43:43.950Z,25.10
2019-03-31T21:46:13.585Z,31.37
2019-03-31T21:48:43.186Z,23.63
2019-03-31T21:51:13.666Z,26.77
2019-03-31T21:53:43.156Z,26.97
2019-03-31T21:56:12.667Z,25.20
2019-03-31T21:58:42.309Z,26.33
2019-03-31T22:01:12.146Z,28.47
2019-03-31T22:03:41.820Z,26.17
2019-03-31T22:06:11.322Z,27.43
2019-03-31T22:08:40.848Z,28.67
2019-03-31T22:11:10.351Z,26.50
2019-03-31T22:13:39.914Z,28.93
2019-03-31T22:16:09.414Z,28.13
2019-03-31T22:18:40.067Z,31.97
2019-03-31T22:21:09.646Z,27.37
2019-03-31T22:23:39.207Z,29.37
2019-03-31T22:26:08.867Z,31.73
2019-03-31T22:28:38.383Z,32.37
2019-03-31T22:31:07.961Z,30.43
2019-03-31T22:33:37.487Z,31.70
2019-03-31T22:36:22.841Z,26.97
2019-03-31T22:38:53.815Z,29.13
2019-03-31T22:41:24.724Z,30.70
2019-03-31T22:43:54.286Z,28.87
2019-03-31T22:46:23.795Z,31.93
2019-03-31T22:48:53.322Z,28.77
2019-03-31T22:51:22.944Z,31.50
2019-03-31T22:53:52.460Z,31.57
2019-03-31T22:56:21.950Z,27.77
2019-03-31T22:58:51.380Z,28.07
2019-03-31T23:01:20.961Z,31.53
2019-03-31T23:03:50.541Z,28.83
2019-03-31T23:06:20.031Z,28.63
2019-03-31T23:08:49.526Z,30.20
2019-03-31T23:11:19.132Z,30.47
2019-03-31T23:13:48.551Z,31.17
2019-03-31T23:16:18.006Z,32.93
2019-03-31T23:18:47.550Z,36.67
2019-03-31T23:21:17.055Z,30.13
2019-03-31T23:23:46.480Z,30.53
2019-03-31T23:26:15.946Z,30.57
2019-03-31T23:28:48.341Z,29.33
2019-03-31T23:31:17.966Z,29.53
2019-03-31T23:33:47.456Z,29.87
2019-03-31T23:36:16.949Z,32.80
2019-03-31T23:38:46.624Z,29.63
2019-03-31T23:41:16.119Z,29.57
2019-03-31T23:43:45.551Z,31.83
2019-03-31T23:46:15.079Z,28.67
2019-03-31T23:48:44.543Z,29.87
2019-03-31T23:51:13.968Z,27.17
2019-03-31T23:53:43.400Z,27.60
2019-03-31T23:56:12.997Z,26.17
2019-03-31T23:58:42.779Z,27.20
